createdAt,value
2017-02-22T00:00:53.131Z,0
2017-02-22T00:01:53.127Z,0
2017-02-22T00:02:53.100Z,0
2017-02-22T00:03:52.691Z,0
2017-02-22T00:04:53.063Z,0
2017-02-22T00:05:53.056Z,0
2017-02-22T00:06:52.659Z,0
2017-02-22T00:07:52.639Z,0
2017-02-22T00:08:52.626Z,0
2017-02-22T00:09:52.995Z,0
2017-02-22T00:10:52.590Z,0
2017-02-22T00:11:52.967Z,0
2017-02-22T00:12:52.548Z,0
2017-02-22T00:13:52.944Z,0
2017-02-22T00:14:52.512Z,0
2017-02-22T00:15:52.505Z,0
2017-02-22T00:16:52.480Z,0
2017-02-22T00:17:52.509Z,0
2017-02-22T00:18:52.845Z,0
2017-02-22T00:19:52.829Z,0
2017-02-22T00:20:52.828Z,0
2017-02-22T00:21:52.824Z,0
2017-02-22T00:22:52.785Z,0
2017-02-22T00:23:52.386Z,0
2017-02-22T00:24:52.355Z,0
2017-02-22T00:25:52.735Z,0
2017-02-22T00:26:52.716Z,0
2017-02-22T00:27:52.701Z,0
2017-02-22T00:28:52.704Z,0
2017-02-22T00:29:52.678Z,0
2017-02-22T00:30:52.656Z,0
2017-02-22T00:31:52.640Z,0
2017-02-22T00:32:52.626Z,0
2017-02-22T00:33:52.615Z,0
2017-02-22T00:34:52.591Z,0
2017-02-22T00:35:52.575Z,0
2017-02-22T00:36:52.575Z,0
2017-02-22T00:37:52.169Z,0
2017-02-22T00:38:52.723Z,0
2017-02-22T00:39:52.138Z,0
2017-02-22T00:40:52.120Z,0
2017-02-22T00:41:52.506Z,0
2017-02-22T00:42:52.491Z,0
2017-02-22T00:43:52.076Z,0
2017-02-22T00:44:52.456Z,0
2017-02-22T00:45:52.417Z,0
2017-02-22T00:46:52.418Z,0
2017-02-22T00:47:52.377Z,0
2017-02-22T00:48:52.362Z,0
2017-02-22T00:49:52.348Z,0
2017-02-22T00:50:52.332Z,0
2017-02-22T00:51:52.324Z,0
2017-02-22T00:52:52.299Z,0
2017-02-22T00:53:52.308Z,0
2017-02-22T00:54:52.269Z,0
2017-02-22T00:55:51.887Z,0
2017-02-22T00:56:52.257Z,0
2017-02-22T00:57:52.245Z,0
2017-02-22T00:58:52.209Z,0
2017-02-22T00:59:51.799Z,0
2017-02-22T01:00:52.191Z,0
2017-02-22T01:01:52.180Z,0
2017-02-22T01:02:51.754Z,0
2017-02-22T01:03:51.752Z,0
2017-02-22T01:04:52.113Z,0
2017-02-22T01:05:51.717Z,0
2017-02-22T01:06:52.076Z,0
2017-02-22T01:07:51.671Z,0
2017-02-22T01:08:51.651Z,0
2017-02-22T01:09:52.049Z,0
2017-02-22T01:10:52.019Z,0
2017-02-22T01:11:52.001Z,0
2017-02-22T01:12:51.994Z,0
2017-02-22T01:13:51.574Z,0
2017-02-22T01:14:51.575Z,0
2017-02-22T01:15:51.534Z,0
2017-02-22T01:16:51.524Z,0
2017-02-22T01:17:51.517Z,0
2017-02-22T01:18:51.514Z,0
2017-02-22T01:19:51.487Z,0
2017-02-22T01:20:51.854Z,0
2017-02-22T01:21:51.857Z,0
2017-02-22T01:22:51.829Z,0
2017-02-22T01:23:51.824Z,0
2017-02-22T01:24:51.809Z,0
2017-02-22T01:25:51.400Z,0
2017-02-22T01:26:51.779Z,0
2017-02-22T01:27:51.748Z,0
2017-02-22T01:28:51.729Z,0
2017-02-22T01:29:51.732Z,0
2017-02-22T01:30:51.711Z,0
2017-02-22T01:31:51.682Z,0
2017-02-22T01:32:51.713Z,0
2017-02-22T01:33:51.273Z,0
2017-02-22T01:34:51.648Z,0
2017-02-22T01:35:51.225Z,0
2017-02-22T01:36:51.607Z,0
2017-02-22T01:37:51.589Z,0
2017-02-22T01:38:51.185Z,0
2017-02-22T01:39:51.576Z,0
2017-02-22T01:40:51.147Z,0
2017-02-22T01:41:51.137Z,0
2017-02-22T01:42:51.540Z,0
2017-02-22T01:43:51.509Z,0
2017-02-22T01:44:51.493Z,0
2017-02-22T01:45:51.489Z,0
2017-02-22T01:46:51.060Z,0
2017-02-22T01:47:51.444Z,0
2017-02-22T01:48:51.040Z,0
2017-02-22T01:49:51.418Z,0
2017-02-22T01:50:51.393Z,0
2017-02-22T01:51:51.379Z,0
2017-02-22T01:52:51.359Z,0
2017-02-22T01:53:51.383Z,0
2017-02-22T01:54:51.337Z,0
2017-02-22T01:55:51.334Z,0
2017-02-22T01:56:50.894Z,0
2017-02-22T01:57:51.280Z,0
2017-02-22T01:58:51.293Z,0
2017-02-22T01:59:51.249Z,0
2017-02-22T02:00:51.238Z,0
2017-02-22T02:01:50.829Z,0
2017-02-22T02:02:51.199Z,0
2017-02-22T02:03:51.210Z,0
2017-02-22T02:04:50.803Z,0
2017-02-22T02:05:51.163Z,0
2017-02-22T02:06:51.139Z,0
2017-02-22T02:07:51.127Z,0
2017-02-22T02:08:51.118Z,0
2017-02-22T02:09:50.720Z,0
2017-02-22T02:10:51.113Z,0
2017-02-22T02:11:50.273Z,0
2017-02-22T02:12:50.646Z,0
2017-02-22T02:13:51.025Z,0
2017-02-22T02:14:51.011Z,0
2017-02-22T02:15:51.004Z,0
2017-02-22T02:16:50.197Z,0
2017-02-22T02:17:50.172Z,0
2017-02-22T02:18:50.550Z,0
2017-02-22T02:19:50.966Z,0
2017-02-22T02:20:50.554Z,0
2017-02-22T02:21:50.913Z,0
2017-02-22T02:22:50.519Z,0
2017-02-22T02:23:50.879Z,0
2017-02-22T02:24:50.886Z,0
2017-02-22T02:25:50.458Z,0
2017-02-22T02:26:50.846Z,0
2017-02-22T02:27:50.808Z,0
2017-02-22T02:28:50.817Z,0
2017-02-22T02:29:50.790Z,0
2017-02-22T02:30:50.784Z,0
2017-02-22T02:31:50.747Z,0
2017-02-22T02:32:50.735Z,0
2017-02-22T02:33:50.729Z,0
2017-02-22T02:34:50.705Z,0
2017-02-22T02:35:50.704Z,0
2017-02-22T02:36:50.699Z,0
2017-02-22T02:37:50.669Z,0
2017-02-22T02:38:50.852Z,0
2017-02-22T02:39:50.236Z,0
2017-02-22T02:40:50.239Z,0
2017-02-22T02:41:50.219Z,0
2017-02-22T02:42:50.581Z,0
2017-02-22T02:43:50.568Z,0
2017-02-22T02:44:50.172Z,0
2017-02-22T02:45:50.544Z,0
2017-02-22T02:46:50.520Z,0
2017-02-22T02:47:50.524Z,0
2017-02-22T02:48:50.485Z,0
2017-02-22T02:49:50.495Z,0
2017-02-22T02:50:50.487Z,0
2017-02-22T02:51:50.047Z,0
2017-02-22T02:52:50.426Z,0
2017-02-22T02:53:50.462Z,0
2017-02-22T02:54:50.013Z,0
2017-02-22T02:55:50.393Z,0
2017-02-22T02:56:50.366Z,0
2017-02-22T02:57:50.350Z,0
2017-02-22T02:58:49.957Z,0
2017-02-22T02:59:49.927Z,0
2017-02-22T03:00:49.918Z,0
2017-02-22T03:01:50.310Z,0
2017-02-22T03:02:49.920Z,0
2017-02-22T03:03:50.260Z,0
2017-02-22T03:04:50.249Z,0
2017-02-22T03:05:49.849Z,0
2017-02-22T03:06:50.218Z,0
2017-02-22T03:07:49.821Z,0
2017-02-22T03:08:50.183Z,0
2017-02-22T03:09:49.400Z,0
2017-02-22T03:10:50.153Z,0
2017-02-22T03:11:50.132Z,0
2017-02-22T03:12:50.123Z,0
2017-02-22T03:13:50.120Z,0
2017-02-22T03:14:50.109Z,0
2017-02-22T03:15:50.080Z,0
2017-02-22T03:16:50.079Z,0
2017-02-22T03:17:50.048Z,0
2017-02-22T03:18:50.038Z,0
2017-02-22T03:19:50.026Z,0
2017-02-22T03:20:50.001Z,0
2017-02-22T03:21:49.992Z,0
2017-02-22T03:22:49.977Z,0
2017-02-22T03:23:49.971Z,0
2017-02-22T03:24:49.561Z,0
2017-02-22T03:25:49.926Z,0
2017-02-22T03:26:49.923Z,0
2017-02-22T03:27:49.908Z,0
2017-02-22T03:28:49.477Z,0
2017-02-22T03:29:49.081Z,0
2017-02-22T03:30:49.088Z,0
2017-02-22T03:31:49.854Z,0
2017-02-22T03:32:49.037Z,0
2017-02-22T03:33:49.414Z,0
2017-02-22T03:34:49.793Z,0
2017-02-22T03:35:49.391Z,0
2017-02-22T03:36:49.746Z,0
2017-02-22T03:37:49.787Z,0
2017-02-22T03:38:49.727Z,0
2017-02-22T03:39:49.727Z,0
2017-02-22T03:40:49.296Z,0
2017-02-22T03:41:49.281Z,0
2017-02-22T03:42:49.666Z,0
2017-02-22T03:43:49.663Z,0
2017-02-22T03:44:49.646Z,0
2017-02-22T03:45:49.661Z,0
2017-02-22T03:46:49.603Z,0
2017-02-22T03:47:49.613Z,0
2017-02-22T03:48:49.569Z,0
2017-02-22T03:49:49.590Z,0
2017-02-22T03:50:49.158Z,0
2017-02-22T03:51:49.562Z,0
2017-02-22T03:52:49.511Z,0
2017-02-22T03:53:49.504Z,0
2017-02-22T03:54:49.477Z,0
2017-02-22T03:55:49.469Z,0
2017-02-22T03:56:49.458Z,0
2017-02-22T03:57:49.442Z,0
2017-02-22T03:58:49.427Z,0
2017-02-22T03:59:49.414Z,0
2017-02-22T04:00:49.396Z,0
2017-02-22T04:01:49.384Z,0
2017-02-22T04:02:49.353Z,0
2017-02-22T04:03:49.379Z,0
2017-02-22T04:04:49.341Z,0
2017-02-22T04:05:49.323Z,0
2017-02-22T04:06:49.295Z,0
2017-02-22T04:07:48.915Z,0
2017-02-22T04:08:48.883Z,0
2017-02-22T04:09:49.255Z,0
2017-02-22T04:10:48.838Z,0
2017-02-22T04:11:49.226Z,0
2017-02-22T04:12:49.217Z,0
2017-02-22T04:13:48.802Z,0
2017-02-22T04:14:48.823Z,0
2017-02-22T04:15:49.162Z,0
2017-02-22T04:16:49.142Z,0
2017-02-22T04:17:49.128Z,0
2017-02-22T04:18:49.131Z,0
2017-02-22T04:19:49.102Z,0
2017-02-22T04:20:49.110Z,0
2017-02-22T04:21:48.677Z,0
2017-02-22T04:22:49.087Z,0
2017-02-22T04:23:49.055Z,0
2017-02-22T04:24:49.031Z,0
2017-02-22T04:25:49.050Z,0
2017-02-22T04:26:48.652Z,0
2017-02-22T04:27:48.994Z,0
2017-02-22T04:28:48.962Z,0
2017-02-22T04:29:48.950Z,0
2017-02-22T04:30:48.937Z,0
2017-02-22T04:31:48.929Z,0
2017-02-22T04:32:48.928Z,0
2017-02-22T04:33:48.883Z,0
2017-02-22T04:34:48.898Z,0
2017-02-22T04:35:48.854Z,0
2017-02-22T04:36:48.893Z,0
2017-02-22T04:37:48.827Z,0
2017-02-22T04:38:49.009Z,0
2017-02-22T04:39:48.806Z,0
2017-02-22T04:40:48.804Z,0
2017-02-22T04:41:48.779Z,0
2017-02-22T04:42:48.755Z,0
2017-02-22T04:43:48.738Z,0
2017-02-22T04:44:48.717Z,0
2017-02-22T04:45:48.702Z,0
2017-02-22T04:46:48.702Z,0
2017-02-22T04:47:48.683Z,0
2017-02-22T04:48:48.676Z,0
2017-02-22T04:49:48.660Z,0
2017-02-22T04:50:48.630Z,0
2017-02-22T04:51:48.621Z,0
2017-02-22T04:52:48.612Z,0
2017-02-22T04:53:48.579Z,0
2017-02-22T04:54:47.797Z,0
2017-02-22T04:55:48.567Z,0
2017-02-22T04:56:48.564Z,0
2017-02-22T04:57:48.162Z,0
2017-02-22T04:58:48.532Z,0
2017-02-22T04:59:48.102Z,0
2017-02-22T05:00:48.098Z,0
2017-02-22T05:01:48.471Z,0
2017-02-22T05:02:48.452Z,0
2017-02-22T05:03:48.044Z,0
2017-02-22T05:04:48.023Z,0
2017-02-22T05:05:48.410Z,0
2017-02-22T05:06:47.589Z,0
2017-02-22T05:07:48.398Z,0
2017-02-22T05:08:48.364Z,0
2017-02-22T05:09:48.350Z,0
2017-02-22T05:10:48.318Z,0
2017-02-22T05:11:47.913Z,0
2017-02-22T05:12:47.913Z,0
2017-02-22T05:13:47.879Z,0
2017-02-22T05:14:47.878Z,0
2017-02-22T05:15:47.496Z,0
2017-02-22T05:16:47.848Z,0
2017-02-22T05:17:48.220Z,0
2017-02-22T05:18:48.206Z,0
2017-02-22T05:19:48.211Z,0
2017-02-22T05:20:48.177Z,0
2017-02-22T05:21:48.160Z,0
2017-02-22T05:22:48.144Z,0
2017-02-22T05:23:48.132Z,0
2017-02-22T05:24:48.117Z,0
2017-02-22T05:25:48.154Z,0
2017-02-22T05:26:48.097Z,0
2017-02-22T05:27:48.083Z,0
2017-02-22T05:28:48.065Z,0
2017-02-22T05:29:48.035Z,0
2017-02-22T05:30:48.046Z,0
2017-02-22T05:31:47.645Z,0
2017-02-22T05:32:47.991Z,0
2017-02-22T05:33:47.970Z,0
2017-02-22T05:34:47.955Z,0
2017-02-22T05:35:47.942Z,0
2017-02-22T05:36:47.531Z,0
2017-02-22T05:37:47.913Z,0
2017-02-22T05:38:47.893Z,0
2017-02-22T05:39:47.876Z,0
2017-02-22T05:40:47.869Z,0
2017-02-22T05:41:47.888Z,0
2017-02-22T05:42:47.837Z,0
2017-02-22T05:43:47.810Z,0
2017-02-22T05:44:47.864Z,0
2017-02-22T05:45:47.804Z,0
2017-02-22T05:46:47.781Z,0
2017-02-22T05:47:47.382Z,0
2017-02-22T05:48:47.757Z,0
2017-02-22T05:49:47.732Z,0
2017-02-22T05:50:47.710Z,0
2017-02-22T05:51:47.703Z,0
2017-02-22T05:52:47.688Z,0
2017-02-22T05:53:47.663Z,0
2017-02-22T05:54:47.251Z,0
2017-02-22T05:55:47.240Z,0
2017-02-22T05:56:47.636Z,0
2017-02-22T05:57:47.205Z,0
2017-02-22T05:58:47.593Z,0
2017-02-22T05:59:47.568Z,0
2017-02-22T06:00:47.169Z,0
2017-02-22T06:01:47.132Z,0
2017-02-22T06:02:47.543Z,0
2017-02-22T06:03:46.328Z,0
2017-02-22T06:04:47.495Z,0
2017-02-22T06:05:47.079Z,0
2017-02-22T06:06:47.466Z,0
2017-02-22T06:07:47.463Z,0
2017-02-22T06:08:47.427Z,0
2017-02-22T06:09:47.015Z,0
2017-02-22T06:10:47.388Z,0
2017-02-22T06:11:47.377Z,0
2017-02-22T06:12:47.366Z,4
2017-02-22T06:13:47.358Z,4
2017-02-22T06:14:47.330Z,8
2017-02-22T06:15:47.304Z,8
2017-02-22T06:16:47.303Z,8
2017-02-22T06:17:47.299Z,8
2017-02-22T06:18:47.277Z,8
2017-02-22T06:19:47.247Z,8
2017-02-22T06:20:47.255Z,12
2017-02-22T06:21:47.216Z,16
2017-02-22T06:22:47.210Z,16
2017-02-22T06:23:47.196Z,20
2017-02-22T06:24:47.161Z,16
2017-02-22T06:25:46.742Z,20
2017-02-22T06:26:47.152Z,20
2017-02-22T06:27:47.136Z,24
2017-02-22T06:28:47.108Z,28
2017-02-22T06:29:46.686Z,24
2017-02-22T06:30:47.081Z,36
2017-02-22T06:31:47.064Z,40
2017-02-22T06:32:47.043Z,44
2017-02-22T06:33:47.022Z,48
2017-02-22T06:34:47.024Z,56
2017-02-22T06:35:46.991Z,52
2017-02-22T06:36:46.983Z,44
2017-02-22T06:37:46.963Z,56
2017-02-22T06:39:01.681Z,64
2017-02-22T06:39:46.529Z,64
2017-02-22T06:40:46.909Z,76
2017-02-22T06:41:46.894Z,76
2017-02-22T06:42:46.861Z,92
2017-02-22T06:43:46.455Z,116
2017-02-22T06:44:46.446Z,112
2017-02-22T06:45:46.842Z,116
2017-02-22T06:46:46.409Z,136
2017-02-22T06:47:46.791Z,140
2017-02-22T06:48:46.963Z,156
2017-02-22T06:49:46.740Z,116
2017-02-22T06:50:46.739Z,152
2017-02-22T06:51:46.736Z,152
2017-02-22T06:52:46.718Z,184
2017-02-22T06:53:46.706Z,172
2017-02-22T06:54:46.661Z,272
2017-02-22T06:55:46.271Z,216
2017-02-22T06:56:46.632Z,260
2017-02-22T06:57:46.620Z,268
2017-02-22T06:58:46.602Z,308
2017-02-22T06:59:46.588Z,312
2017-02-22T07:00:46.591Z,252
2017-02-22T07:01:46.563Z,308
2017-02-22T07:02:46.133Z,268
2017-02-22T07:03:46.516Z,292
2017-02-22T07:04:46.510Z,296
2017-02-22T07:05:46.124Z,288
2017-02-22T07:06:46.470Z,300
2017-02-22T07:07:46.466Z,344
2017-02-22T07:08:46.444Z,400
2017-02-22T07:09:46.450Z,448
2017-02-22T07:10:46.465Z,504
2017-02-22T07:11:46.438Z,488
2017-02-22T07:12:45.975Z,452
2017-02-22T07:13:45.973Z,568
2017-02-22T07:14:46.344Z,572
2017-02-22T07:15:46.347Z,532
2017-02-22T07:16:45.918Z,720
2017-02-22T07:17:45.894Z,512
2017-02-22T07:18:46.280Z,656
2017-02-22T07:19:45.888Z,648
2017-02-22T07:20:46.273Z,720
2017-02-22T07:21:46.218Z,596
2017-02-22T07:22:46.204Z,500
2017-02-22T07:23:45.433Z,636
2017-02-22T07:24:46.178Z,696
2017-02-22T07:25:46.177Z,636
2017-02-22T07:26:46.152Z,796
2017-02-22T07:27:46.376Z,780
2017-02-22T07:28:46.119Z,828
2017-02-22T07:29:46.119Z,632
2017-02-22T07:30:46.092Z,680
2017-02-22T07:31:46.068Z,784
2017-02-22T07:32:45.643Z,760
2017-02-22T07:33:46.026Z,684
2017-02-22T07:34:46.008Z,728
2017-02-22T07:35:46.010Z,656
2017-02-22T07:36:45.975Z,620
2017-02-22T07:37:45.966Z,564
2017-02-22T07:38:45.175Z,620
2017-02-22T07:39:45.943Z,644
2017-02-22T07:40:45.919Z,596
2017-02-22T07:41:45.890Z,500
2017-02-22T07:42:45.878Z,632
2017-02-22T07:43:45.068Z,736
2017-02-22T07:44:45.858Z,652
2017-02-22T07:45:45.841Z,720
2017-02-22T07:46:45.814Z,800
2017-02-22T07:47:45.794Z,672
2017-02-22T07:48:45.775Z,840
2017-02-22T07:49:45.787Z,704
2017-02-22T07:50:45.741Z,632
2017-02-22T07:51:45.734Z,988
2017-02-22T07:52:45.717Z,728
2017-02-22T07:53:45.714Z,868
2017-02-22T07:54:45.719Z,772
2017-02-22T07:55:45.264Z,964
2017-02-22T07:56:45.249Z,1084
2017-02-22T07:57:44.837Z,1260
2017-02-22T07:58:45.209Z,1160
2017-02-22T07:59:45.238Z,1264
2017-02-22T08:00:45.192Z,1496
2017-02-22T08:01:45.189Z,1288
2017-02-22T08:02:45.145Z,1744
2017-02-22T08:03:45.531Z,1500
2017-02-22T08:04:45.107Z,1460
2017-02-22T08:05:45.160Z,1324
2017-02-22T08:06:45.474Z,1364
2017-02-22T08:07:45.075Z,1448
2017-02-22T08:08:44.687Z,1740
2017-02-22T08:09:45.442Z,1760
2017-02-22T08:10:45.409Z,1980
2017-02-22T08:11:45.418Z,1780
2017-02-22T08:12:45.002Z,1996
2017-02-22T08:13:45.362Z,1368
2017-02-22T08:14:45.341Z,1332
2017-02-22T08:15:45.334Z,1188
2017-02-22T08:16:45.320Z,988
2017-02-22T08:17:45.320Z,1156
2017-02-22T08:18:45.300Z,948
2017-02-22T08:19:45.267Z,1228
2017-02-22T08:20:45.310Z,1268
2017-02-22T08:21:45.241Z,1472
2017-02-22T08:22:45.213Z,1432
2017-02-22T08:23:45.208Z,1860
2017-02-22T08:24:45.199Z,1316
2017-02-22T08:25:45.172Z,1448
2017-02-22T08:26:45.146Z,1492
2017-02-22T08:27:45.135Z,1504
2017-02-22T08:28:45.121Z,1908
2017-02-22T08:29:45.109Z,2348
2017-02-22T08:30:45.089Z,1852
2017-02-22T08:31:45.070Z,1580
2017-02-22T08:32:44.261Z,1620
2017-02-22T08:33:45.045Z,1340
2017-02-22T08:34:44.642Z,1368
2017-02-22T08:35:44.623Z,1124
2017-02-22T08:36:44.995Z,1144
2017-02-22T08:37:44.981Z,1172
2017-02-22T08:38:44.962Z,1424
2017-02-22T08:39:44.943Z,1424
2017-02-22T08:40:44.978Z,1392
2017-02-22T08:41:44.905Z,1648
2017-02-22T08:42:44.890Z,1576
2017-02-22T08:43:44.478Z,2068
2017-02-22T08:44:44.471Z,1736
2017-02-22T08:45:44.496Z,1712
2017-02-22T08:46:44.426Z,1680
2017-02-22T08:47:44.451Z,2228
2017-02-22T08:48:44.801Z,1748
2017-02-22T08:49:44.379Z,1772
2017-02-22T08:50:44.762Z,1564
2017-02-22T08:51:44.375Z,1516
2017-02-22T08:52:44.363Z,1776
2017-02-22T08:53:44.714Z,1612
2017-02-22T08:54:44.727Z,1716
2017-02-22T08:55:44.675Z,1180
2017-02-22T08:56:44.667Z,1200
2017-02-22T08:57:44.659Z,1352
2017-02-22T08:58:44.634Z,1476
2017-02-22T08:59:44.625Z,1760
2017-02-22T09:00:44.596Z,1840
2017-02-22T09:01:44.593Z,1884
2017-02-22T09:02:44.172Z,1552
2017-02-22T09:03:44.584Z,2184
2017-02-22T09:04:44.588Z,1460
2017-02-22T09:05:44.526Z,1476
2017-02-22T09:06:44.512Z,1516
2017-02-22T09:07:44.493Z,1720
2017-02-22T09:08:44.480Z,1536
2017-02-22T09:09:44.064Z,1780
2017-02-22T09:10:44.428Z,1700
2017-02-22T09:11:44.445Z,1848
2017-02-22T09:12:43.622Z,1820
2017-02-22T09:13:44.394Z,2092
2017-02-22T09:14:44.385Z,1852
2017-02-22T09:15:44.372Z,1716
2017-02-22T09:16:44.391Z,1680
2017-02-22T09:17:43.946Z,1928
2017-02-22T09:18:44.336Z,1972
2017-02-22T09:19:44.293Z,2232
2017-02-22T09:20:44.288Z,1932
2017-02-22T09:21:44.271Z,3904
2017-02-22T09:22:44.256Z,5004
2017-02-22T09:23:44.240Z,4608
2017-02-22T09:24:44.220Z,3120
2017-02-22T09:25:44.225Z,2816
2017-02-22T09:26:44.188Z,3508
2017-02-22T09:27:44.176Z,3660
2017-02-22T09:28:43.759Z,5204
2017-02-22T09:29:44.132Z,5536
2017-02-22T09:30:43.734Z,5580
2017-02-22T09:31:44.107Z,6236
2017-02-22T09:32:44.089Z,5064
2017-02-22T09:33:44.093Z,3976
2017-02-22T09:34:44.059Z,2816
2017-02-22T09:35:44.049Z,2336
2017-02-22T09:36:44.039Z,2192
2017-02-22T09:37:44.018Z,2604
2017-02-22T09:38:44.000Z,2104
2017-02-22T09:39:43.978Z,2440
2017-02-22T09:40:43.957Z,2456
2017-02-22T09:41:43.939Z,2288
2017-02-22T09:42:43.929Z,2492
2017-02-22T09:43:43.916Z,2276
2017-02-22T09:44:43.903Z,2308
2017-02-22T09:45:43.948Z,2908
2017-02-22T09:46:43.862Z,2104
2017-02-22T09:47:43.853Z,2756
2017-02-22T09:48:43.826Z,2912
2017-02-22T09:49:43.840Z,2600
2017-02-22T09:50:43.405Z,2512
2017-02-22T09:51:43.785Z,3124
2017-02-22T09:52:43.776Z,3640
2017-02-22T09:53:43.365Z,2812
2017-02-22T09:54:43.333Z,2500
2017-02-22T09:55:43.722Z,2044
2017-02-22T09:56:43.730Z,2224
2017-02-22T09:57:43.294Z,2976
2017-02-22T09:58:43.688Z,2984
2017-02-22T09:59:43.675Z,3676
2017-02-22T10:00:43.644Z,2696
2017-02-22T10:01:43.233Z,2588
2017-02-22T10:02:43.222Z,3196
2017-02-22T10:03:43.813Z,2276
2017-02-22T10:04:43.608Z,2672
2017-02-22T10:05:43.572Z,2024
2017-02-22T10:06:43.581Z,2100
2017-02-22T10:07:43.550Z,1676
2017-02-22T10:08:43.545Z,1708
2017-02-22T10:09:43.540Z,1704
2017-02-22T10:10:43.507Z,1528
2017-02-22T10:11:43.485Z,2052
2017-02-22T10:12:43.474Z,1468
2017-02-22T10:13:42.686Z,1804
2017-02-22T10:14:43.453Z,1664
2017-02-22T10:15:43.451Z,2396
2017-02-22T10:16:43.423Z,2560
2017-02-22T10:17:43.020Z,3644
2017-02-22T10:18:42.983Z,3428
2017-02-22T10:19:42.969Z,3076
2017-02-22T10:20:43.166Z,3384
2017-02-22T10:21:43.353Z,3628
2017-02-22T10:22:43.312Z,3948
2017-02-22T10:23:43.316Z,3172
2017-02-22T10:24:43.278Z,3312
2017-02-22T10:25:42.905Z,3564
2017-02-22T10:26:43.301Z,3552
2017-02-22T10:27:43.280Z,2772
2017-02-22T10:28:42.832Z,3584
2017-02-22T10:29:43.204Z,2888
2017-02-22T10:30:43.398Z,2896
2017-02-22T10:31:43.168Z,2352
2017-02-22T10:32:43.176Z,3108
2017-02-22T10:33:43.132Z,2436
2017-02-22T10:34:43.269Z,2780
2017-02-22T10:35:43.116Z,3172
2017-02-22T10:36:42.696Z,2836
2017-02-22T10:37:43.087Z,2168
2017-02-22T10:38:42.680Z,2380
2017-02-22T10:39:43.465Z,3120
2017-02-22T10:40:43.065Z,3056
2017-02-22T10:41:43.033Z,2704
2017-02-22T10:42:42.588Z,3260
2017-02-22T10:43:42.991Z,3024
2017-02-22T10:44:42.972Z,2832
2017-02-22T10:45:42.943Z,2424
2017-02-22T10:46:42.920Z,2456
2017-02-22T10:47:42.920Z,2968
2017-02-22T10:48:42.902Z,2972
2017-02-22T10:49:42.885Z,3024
2017-02-22T10:50:42.873Z,2648
2017-02-22T10:51:42.840Z,2416
2017-02-22T10:52:42.835Z,2856
2017-02-22T10:53:42.806Z,3168
2017-02-22T10:54:42.412Z,3404
2017-02-22T10:55:42.807Z,2712
2017-02-22T10:56:42.368Z,2136
2017-02-22T10:57:42.747Z,2596
2017-02-22T10:58:42.334Z,2572
2017-02-22T10:59:42.751Z,2740
2017-02-22T11:00:42.761Z,2700
2017-02-22T11:01:42.804Z,2648
2017-02-22T11:02:42.671Z,2832
2017-02-22T11:03:42.667Z,3092
2017-02-22T11:04:42.665Z,2832
2017-02-22T11:05:42.628Z,3184
2017-02-22T11:06:42.608Z,3076
2017-02-22T11:07:42.610Z,3268
2017-02-22T11:08:42.579Z,2792
2017-02-22T11:09:42.599Z,2804
2017-02-22T11:10:42.566Z,3112
2017-02-22T11:11:42.549Z,3092
2017-02-22T11:12:42.528Z,2824
2017-02-22T11:13:42.727Z,1972
2017-02-22T11:14:42.491Z,1992
2017-02-22T11:15:42.474Z,1904
2017-02-22T11:16:42.476Z,2596
2017-02-22T11:17:42.475Z,3264
2017-02-22T11:18:42.415Z,2868
2017-02-22T11:19:42.405Z,3464
2017-02-22T11:20:42.386Z,2476
2017-02-22T11:21:42.369Z,3268
2017-02-22T11:22:42.366Z,2832
2017-02-22T11:23:42.346Z,3152
2017-02-22T11:24:42.311Z,3684
2017-02-22T11:25:42.308Z,3196
2017-02-22T11:26:42.303Z,2616
2017-02-22T11:27:42.272Z,2588
2017-02-22T11:28:41.862Z,2584
2017-02-22T11:29:41.493Z,2084
2017-02-22T11:30:42.252Z,2084
2017-02-22T11:31:42.234Z,2836
2017-02-22T11:32:42.206Z,2640
2017-02-22T11:33:42.183Z,2620
2017-02-22T11:34:42.199Z,3248
2017-02-22T11:35:42.170Z,3420
2017-02-22T11:36:42.157Z,3564
2017-02-22T11:37:42.128Z,3556
2017-02-22T11:38:42.099Z,2928
2017-02-22T11:39:42.081Z,3092
2017-02-22T11:40:42.093Z,2828
2017-02-22T11:41:42.056Z,3888
2017-02-22T11:42:41.654Z,4068
2017-02-22T11:43:42.035Z,3604
2017-02-22T11:44:42.029Z,4516
2017-02-22T11:45:42.008Z,4060
2017-02-22T11:46:41.988Z,4412
2017-02-22T11:47:41.963Z,3492
2017-02-22T11:48:41.972Z,3884
2017-02-22T11:49:41.948Z,3924
2017-02-22T11:50:41.936Z,2912
2017-02-22T11:51:41.904Z,2452
2017-02-22T11:52:41.898Z,2896
2017-02-22T11:53:41.877Z,2772
2017-02-22T11:54:41.854Z,3244
2017-02-22T11:55:41.850Z,3956
2017-02-22T11:56:41.484Z,4216
2017-02-22T11:57:41.413Z,4000
2017-02-22T11:58:41.445Z,2828
2017-02-22T11:59:41.781Z,2056
2017-02-22T12:00:41.766Z,2572
2017-02-22T12:01:41.764Z,1460
2017-02-22T12:02:41.726Z,2224
2017-02-22T12:03:41.322Z,2092
2017-02-22T12:04:41.702Z,2524
2017-02-22T12:05:41.692Z,2060
2017-02-22T12:06:41.677Z,2064
2017-02-22T12:07:41.942Z,2608
2017-02-22T12:08:41.649Z,2824
2017-02-22T12:09:41.638Z,1880
2017-02-22T12:10:41.610Z,2220
2017-02-22T12:11:41.598Z,1856
2017-02-22T12:12:41.577Z,2140
2017-02-22T12:13:41.569Z,2304
2017-02-22T12:14:41.164Z,2800
2017-02-22T12:15:41.528Z,2644
2017-02-22T12:16:41.530Z,2688
2017-02-22T12:17:41.500Z,2352
2017-02-22T12:18:41.484Z,1800
2017-02-22T12:19:41.464Z,1940
2017-02-22T12:20:41.456Z,1980
2017-02-22T12:21:41.455Z,1868
2017-02-22T12:22:41.427Z,1384
2017-02-22T12:23:41.022Z,1904
2017-02-22T12:24:41.391Z,2700
2017-02-22T12:25:41.398Z,2332
2017-02-22T12:26:41.372Z,2560
2017-02-22T12:27:41.343Z,2660
2017-02-22T12:28:41.336Z,2188
2017-02-22T12:29:40.552Z,3244
2017-02-22T12:30:41.300Z,3192
2017-02-22T12:31:41.292Z,2588
2017-02-22T12:32:41.265Z,3384
2017-02-22T12:33:40.851Z,3724
2017-02-22T12:34:41.241Z,3128
2017-02-22T12:35:40.857Z,3516
2017-02-22T12:36:41.202Z,3604
2017-02-22T12:37:41.199Z,3448
2017-02-22T12:38:41.169Z,3684
2017-02-22T12:39:41.356Z,4820
2017-02-22T12:40:41.150Z,4624
2017-02-22T12:41:41.116Z,4104
2017-02-22T12:42:40.711Z,3132
2017-02-22T12:43:40.689Z,2688
2017-02-22T12:44:41.084Z,2336
2017-02-22T12:45:41.098Z,2384
2017-02-22T12:46:40.648Z,2688
2017-02-22T12:47:40.639Z,2960
2017-02-22T12:48:40.613Z,2200
2017-02-22T12:49:40.266Z,1920
2017-02-22T12:50:40.628Z,2568
2017-02-22T12:51:40.582Z,2832
2017-02-22T12:52:40.557Z,2032
2017-02-22T12:53:40.935Z,1744
2017-02-22T12:54:40.528Z,1812
2017-02-22T12:55:40.943Z,1904
2017-02-22T12:56:40.124Z,2076
2017-02-22T12:57:40.869Z,3016
2017-02-22T12:58:40.861Z,2392
2017-02-22T12:59:40.846Z,2096
2017-02-22T13:00:40.833Z,2216
2017-02-22T13:01:40.813Z,2440
2017-02-22T13:02:40.795Z,1680
2017-02-22T13:03:40.787Z,2220
2017-02-22T13:04:40.787Z,1788
2017-02-22T13:05:40.770Z,1708
2017-02-22T13:06:40.739Z,2632
2017-02-22T13:07:40.727Z,2816
2017-02-22T13:08:40.721Z,2476
2017-02-22T13:09:40.681Z,2940
2017-02-22T13:10:40.686Z,2832
2017-02-22T13:11:40.672Z,2784
2017-02-22T13:12:40.649Z,2548
2017-02-22T13:13:40.628Z,2132
2017-02-22T13:14:40.607Z,2620
2017-02-22T13:15:40.597Z,2996
2017-02-22T13:16:40.595Z,3656
2017-02-22T13:17:40.565Z,3600
2017-02-22T13:18:40.543Z,3504
2017-02-22T13:19:40.529Z,3916
2017-02-22T13:20:40.524Z,4240
2017-02-22T13:21:40.500Z,4368
2017-02-22T13:22:40.514Z,2276
2017-02-22T13:23:40.473Z,2472
2017-02-22T13:24:40.447Z,3316
2017-02-22T13:25:40.445Z,2424
2017-02-22T13:26:40.418Z,2476
2017-02-22T13:27:40.397Z,3224
2017-02-22T13:28:40.393Z,2348
2017-02-22T13:29:39.975Z,2412
2017-02-22T13:30:39.576Z,2064
2017-02-22T13:31:40.380Z,1684
2017-02-22T13:32:40.347Z,2500
2017-02-22T13:33:39.914Z,1808
2017-02-22T13:34:40.298Z,2096
2017-02-22T13:35:40.274Z,2756
2017-02-22T13:36:39.868Z,2232
2017-02-22T13:37:39.855Z,2476
2017-02-22T13:38:40.230Z,2460
2017-02-22T13:39:40.217Z,3104
2017-02-22T13:40:40.204Z,2804
2017-02-22T13:41:40.190Z,1488
2017-02-22T13:42:39.798Z,2412
2017-02-22T13:43:39.782Z,2336
2017-02-22T13:44:40.146Z,2168
2017-02-22T13:45:40.137Z,2312
2017-02-22T13:46:40.112Z,2012
2017-02-22T13:47:40.126Z,2432
2017-02-22T13:48:40.082Z,2016
2017-02-22T13:49:40.075Z,2588
2017-02-22T13:50:40.049Z,2560
2017-02-22T13:51:40.030Z,2212
2017-02-22T13:52:40.020Z,2656
2017-02-22T13:53:40.039Z,2960
2017-02-22T13:54:39.979Z,2424
2017-02-22T13:55:39.568Z,2908
2017-02-22T13:56:39.943Z,2224
2017-02-22T13:57:39.934Z,3032
2017-02-22T13:58:39.939Z,3168
2017-02-22T13:59:39.906Z,2476
2017-02-22T14:00:39.892Z,2364